Time;durP1;ratioP1;P1;durP2;ratioP2;P2;SDS_P1;SDS_P2;PMS_P1;PMS_P2;Temp;Humidity;BMP_temperature;BMP_pressure;BME280_temperature;BME280_humidity;BME280_pressure;Samples;Min_cycle;Max_cycle;Signal;HPM_P1;HPM_P2
2021/12/29 00:02:20;;;;;;;1.45;1.37;;;;;;;19.66;43.50;98889.06;1827302;77;28274;-65
2021/12/29 00:05:09;;;;;;;1.37;1.27;;;;;;;19.66;43.46;98898.08;1872154;75;28259;-65
2021/12/29 00:07:58;;;;;;;1.30;1.20;;;;;;;19.67;43.53;98893.47;1872526;75;28068;-66
2021/12/29 00:10:47;;;;;;;1.30;1.30;;;;;;;19.66;43.50;98891.27;1857482;76;28176;-66
2021/12/29 00:13:35;;;;;;;1.35;1.30;;;;;;;19.67;43.48;98901.12;1875004;75;28301;-66
2021/12/29 00:16:24;;;;;;;1.20;1.20;;;;;;;19.66;43.48;98889.06;1870340;75;29201;-65
2021/12/29 00:19:12;;;;;;;1.10;1.10;;;;;;;19.68;43.52;98894.59;1874319;75;28222;-65
2021/12/29 00:22:00;;;;;;;1.40;1.30;;;;;;;19.71;43.48;98898.23;1854240;75;28085;-64
2021/12/29 00:24:49;;;;;;;1.50;1.37;;;;;;;19.72;43.70;98907.23;1862129;75;28077;-65
2021/12/29 00:27:38;;;;;;;1.37;1.32;;;;;;;19.72;43.70;98907.23;1857429;76;28240;-65
2021/12/29 00:30:28;;;;;;;1.35;1.30;;;;;;;19.71;43.49;98917.30;1854747;76;28126;-66
2021/12/29 00:33:18;;;;;;;1.35;1.30;;;;;;;19.71;43.46;98924.63;1859269;76;28242;-66
2021/12/29 00:36:29;;;;;;;1.25;1.25;;;;;;;19.70;43.49;98926.52;1846023;77;28431;-65
2021/12/29 00:39:26;;;;;;;1.10;1.10;;;;;;;19.66;43.55;98922.60;1824607;76;28332;-65
2021/12/29 00:42:32;;;;;;;1.22;1.22;;;;;;;19.66;43.59;98923.12;1844587;77;28296;-65
2021/12/29 00:45:40;;;;;;;1.10;1.10;;;;;;;19.63;43.58;98923.57;1856591;76;28341;-65
2021/12/29 00:48:35;;;;;;;1.20;1.20;;;;;;;19.64;43.64;98932.06;1867482;76;28200;-65
2021/12/29 00:51:18;;;;;;;1.25;1.25;;;;;;;19.67;43.63;98938.42;1867317;76;28261;-66
2021/12/29 00:54:07;;;;;;;1.27;1.27;;;;;;;19.68;43.55;98923.72;1854254;76;28225;-65
2021/12/29 00:56:55;;;;;;;1.40;1.30;;;;;;;19.69;43.58;98930.33;1853228;77;28169;-66
2021/12/29 00:59:45;;;;;;;1.30;1.20;;;;;;;19.71;43.53;98937.73;1868431;75;28175;-66
2021/12/29 01:02:34;;;;;;;1.60;1.40;;;;;;;19.72;43.50;98956.28;1849784;76;28116;-65
2021/12/29 01:05:22;;;;;;;1.37;1.27;;;;;;;19.74;43.48;98946.80;1879484;75;28071;-65
2021/12/29 01:08:12;;;;;;;1.32;1.30;;;;;;;19.74;43.48;98943.27;1868828;76;28164;-66
2021/12/29 01:11:01;;;;;;;1.10;1.10;;;;;;;19.70;43.55;98957.86;1859715;75;28312;-65
2021/12/29 01:13:50;;;;;;;1.70;1.20;;;;;;;19.72;43.56;98970.72;1861726;76;28139;-65
2021/12/29 01:16:39;;;;;;;1.13;1.13;;;;;;;19.74;43.55;98960.97;1847585;76;28025;-65
2021/12/29 01:19:30;;;;;;;1.15;1.15;;;;;;;19.72;43.50;98953.56;1861712;76;28254;-65
2021/12/29 01:22:18;;;;;;;1.10;1.10;;;;;;;19.75;43.55;98962.09;1870566;76;28101;-65
2021/12/29 01:25:08;;;;;;;1.10;1.10;;;;;;;19.75;43.52;98962.63;1868696;76;28232;-65
2021/12/29 01:27:58;;;;;;;1.10;1.10;;;;;;;19.74;43.54;98952.80;1860446;76;28302;-66
2021/12/29 01:30:47;;;;;;;1.00;1.00;;;;;;;19.77;43.48;98975.48;1883830;75;28158;-66
2021/12/29 01:33:35;;;;;;;1.75;1.30;;;;;;;19.76;43.50;98975.20;1846198;76;28187;-66
2021/12/29 01:36:24;;;;;;;1.10;1.10;;;;;;;19.75;43.54;98975.72;1866195;76;28243;-66
2021/12/29 01:39:15;;;;;;;1.10;1.10;;;;;;;19.76;43.52;98969.22;1867173;76;28192;-66
2021/12/29 01:42:04;;;;;;;1.10;1.10;;;;;;;19.75;43.52;98976.24;1867520;76;28244;-66
2021/12/29 01:44:54;;;;;;;1.10;1.10;;;;;;;19.76;43.56;98982.01;1855158;76;28251;-66
2021/12/29 01:47:42;;;;;;;1.20;1.20;;;;;;;19.76;43.59;98986.09;1859392;76;28247;-64
2021/12/29 01:50:33;;;;;;;1.00;1.00;;;;;;;19.76;43.53;98987.45;1859479;76;28765;-64
2021/12/29 01:53:29;;;;;;;1.00;1.00;;;;;;;19.76;43.53;98995.63;1867232;76;28175;-65
2021/12/29 01:56:16;;;;;;;1.20;1.20;;;;;;;19.75;43.60;99000.25;1856384;76;28289;-64
2021/12/29 01:59:04;;;;;;;1.30;1.20;;;;;;;19.77;43.59;99006.81;1868705;76;28075;-64
2021/12/29 02:01:53;;;;;;;1.00;1.00;;;;;;;19.78;43.56;99018.87;1859453;76;28228;-66
2021/12/29 02:04:43;;;;;;;1.00;1.00;;;;;;;19.79;43.55;99005.53;1860875;76;28262;-63
2021/12/29 02:07:33;;;;;;;1.07;1.07;;;;;;;19.79;43.48;99008.81;1831136;78;28261;-64
2021/12/29 02:10:24;;;;;;;1.25;1.20;;;;;;;19.79;43.54;99007.45;1854806;76;28655;-64
2021/12/29 02:13:14;;;;;;;1.25;1.15;;;;;;;19.81;43.51;99008.05;1868613;76;28263;-64
2021/12/29 02:16:03;;;;;;;0.95;0.95;;;;;;;19.81;43.50;99009.41;1857658;76;28223;-67
2021/12/29 02:18:57;;;;;;;1.10;1.10;;;;;;;19.81;43.53;99005.33;1886567;75;28093;-65
2021/12/29 02:21:57;;;;;;;1.10;1.00;;;;;;;19.85;43.58;99014.70;1870758;75;28270;-64
2021/12/29 02:24:42;;;;;;;1.10;1.10;;;;;;;19.86;43.60;99024.56;1867281;76;28522;-64
2021/12/29 02:27:29;;;;;;;1.10;1.10;;;;;;;19.90;43.56;99019.78;1869910;76;28224;-63
2021/12/29 02:30:20;;;;;;;1.00;1.00;;;;;;;19.92;43.55;99024.47;1823419;77;28277;-63
2021/12/29 02:33:13;;;;;;;0.93;0.93;;;;;;;19.93;43.55;99032.09;1855734;76;28300;-64
2021/12/29 02:36:01;;;;;;;1.00;1.00;;;;;;;19.93;43.57;99033.45;1854979;77;28023;-63
2021/12/29 02:38:51;;;;;;;1.00;1.00;;;;;;;19.95;43.53;99039.54;1855350;77;28187;-63
2021/12/29 02:41:43;;;;;;;1.07;1.07;;;;;;;20.00;43.47;99045.11;1842735;76;28082;-64
2021/12/29 02:44:39;;;;;;;1.00;1.00;;;;;;;20.00;43.46;99032.84;1858276;76;28051;-64
2021/12/29 02:47:23;;;;;;;1.17;1.17;;;;;;;20.03;43.39;99035.13;1855406;76;28908;-64
2021/12/29 02:50:17;;;;;;;1.00;1.00;;;;;;;20.05;43.42;99041.17;1861102;76;28101;-64
2021/12/29 02:53:06;;;;;;;0.90;0.90;;;;;;;20.06;43.39;99040.13;1858605;76;28242;-63
2021/12/29 02:55:56;;;;;;;0.93;0.93;;;;;;;20.09;43.34;99038.84;1849100;77;28493;-64
2021/12/29 02:58:45;;;;;;;1.07;1.00;;;;;;;20.11;43.30;99037.55;1871298;76;28256;-63
2021/12/29 03:01:35;;;;;;;1.40;0.90;;;;;;;20.11;43.29;99053.08;1845364;77;28135;-63
2021/12/29 03:04:25;;;;;;;1.00;1.00;;;;;;;20.11;43.30;99033.98;1852842;77;28171;-63
2021/12/29 03:07:14;;;;;;;1.10;1.10;;;;;;;20.13;43.27;99067.30;1856936;75;28066;-63
2021/12/29 03:10:04;;;;;;;1.02;1.02;;;;;;;20.14;43.26;99062.97;1859394;76;28113;-63
2021/12/29 03:12:54;;;;;;;1.02;1.02;;;;;;;20.16;43.21;99021.34;1855410;77;28196;-64
2021/12/29 03:15:42;;;;;;;1.02;1.02;;;;;;;20.17;43.17;99047.53;1843325;76;28153;-64
2021/12/29 03:18:31;;;;;;;0.90;0.90;;;;;;;20.18;43.18;99052.46;1853468;76;28521;-63
2021/12/29 03:21:19;;;;;;;0.90;0.90;;;;;;;20.20;43.17;99033.97;1890915;75;28142;-63
2021/12/29 03:24:09;;;;;;;0.90;0.90;;;;;;;20.21;43.07;99039.73;1867719;75;28004;-64
2021/12/29 03:26:58;;;;;;;0.90;0.90;;;;;;;20.21;43.16;99056.91;1846335;75;28085;-64
2021/12/29 03:29:46;;;;;;;0.90;0.82;;;;;;;20.24;43.07;99036.56;1879951;75;28180;-64
2021/12/29 03:32:43;;;;;;;0.90;0.90;;;;;;;20.22;43.11;99029.14;1876484;75;28165;-63
2021/12/29 03:35:25;;;;;;;1.00;0.90;;;;;;;20.24;43.01;99029.74;1870684;76;28050;-64
2021/12/29 03:38:20;;;;;;;0.90;0.90;;;;;;;20.25;43.04;99031.42;1847545;76;28078;-63
2021/12/29 03:41:11;;;;;;;1.20;0.80;;;;;;;20.25;43.05;99049.98;1867122;76;28117;-65
2021/12/29 03:44:01;;;;;;;0.88;0.88;;;;;;;20.27;42.99;99064.22;1845223;76;28292;-65
2021/12/29 03:46:50;;;;;;;0.93;0.82;;;;;;;20.26;42.99;99057.61;1857333;76;28072;-65
2021/12/29 03:49:41;;;;;;;1.02;0.95;;;;;;;20.27;42.98;99032.86;1869835;75;28203;-65
2021/12/29 03:52:30;;;;;;;0.80;0.80;;;;;;;20.27;43.02;99006.95;1894689;75;28028;-65
2021/12/29 03:55:18;;;;;;;0.90;0.90;;;;;;;20.30;42.96;99009.22;1872054;75;28582;-65
2021/12/29 03:58:07;;;;;;;0.80;0.80;;;;;;;20.28;42.92;99019.50;1873518;76;28182;-64
2021/12/29 04:01:01;;;;;;;0.80;0.80;;;;;;;20.28;42.95;99029.05;1871398;76;28134;-64
2021/12/29 04:03:49;;;;;;;0.70;0.70;;;;;;;20.29;42.96;99006.18;1867329;76;28145;-63
2021/12/29 04:06:37;;;;;;;1.00;1.00;;;;;;;20.29;42.93;98998.52;1856783;76;28044;-63
2021/12/29 04:09:26;;;;;;;0.70;0.70;;;;;;;20.27;43.00;99023.31;1870223;76;28092;-64
2021/12/29 04:12:14;;;;;;;0.70;0.60;;;;;;;20.31;42.95;99029.96;1869209;76;28024;-64
2021/12/29 04:15:03;;;;;;;0.70;0.70;;;;;;;20.33;42.93;99030.56;1872649;76;28103;-63
2021/12/29 04:17:58;;;;;;;0.85;0.85;;;;;;;20.36;42.88;99020.56;1871071;76;28099;-64
2021/12/29 04:21:02;;;;;;;0.70;0.70;;;;;;;20.36;42.81;99000.63;1877363;75;28537;-64
2021/12/29 04:23:50;;;;;;;0.90;0.90;;;;;;;20.37;42.81;99014.05;1810836;78;28240;-64
2021/12/29 04:26:39;;;;;;;0.80;0.80;;;;;;;20.35;42.83;99025.70;1864129;76;28286;-64
2021/12/29 04:29:27;;;;;;;0.83;0.83;;;;;;;20.36;42.85;99023.81;1861743;76;28071;-63
2021/12/29 04:32:15;;;;;;;0.85;0.85;;;;;;;20.37;42.89;99026.86;1858661;76;28243;-64
2021/12/29 04:35:04;;;;;;;0.80;0.80;;;;;;;20.38;42.86;99033.95;1851465;76;28360;-64
2021/12/29 04:37:53;;;;;;;0.88;0.88;;;;;;;20.39;42.83;99040.56;1868414;76;28149;-63
2021/12/29 04:40:42;;;;;;;0.62;0.62;;;;;;;20.37;42.81;99044.06;1855348;77;28536;-64
2021/12/29 04:43:31;;;;;;;0.70;0.70;;;;;;;20.38;42.82;99046.23;1871090;76;28009;-64
2021/12/29 04:46:27;;;;;;;0.80;0.80;;;;;;;20.42;42.77;99042.81;1867790;76;28031;-63
2021/12/29 04:49:13;;;;;;;0.70;0.70;;;;;;;20.42;42.77;99038.72;1868404;75;28009;-64
2021/12/29 04:52:04;;;;;;;0.70;0.70;;;;;;;20.42;42.78;99044.17;1879977;75;28070;-64
2021/12/29 04:54:52;;;;;;;0.62;0.62;;;;;;;20.43;42.74;99045.85;1853386;77;28170;-64
2021/12/29 04:57:40;;;;;;;0.68;0.68;;;;;;;20.42;42.73;99044.17;1848678;76;28089;-64
2021/12/29 05:00:31;;;;;;;0.70;0.70;;;;;;;20.44;42.75;99048.05;1867373;76;28009;-64
2021/12/29 05:03:21;;;;;;;0.62;0.62;;;;;;;20.44;42.73;99048.05;1867370;76;27996;-64
2021/12/29 05:08:59;;;;;;;0.68;0.68;;;;;;;20.42;42.76;99050.19;1873401;76;28008;-64
2021/12/29 05:11:48;;;;;;;0.70;0.70;;;;;;;20.45;42.74;99053.27;1867127;76;28189;-63
2021/12/29 05:14:37;;;;;;;0.80;0.80;;;;;;;20.43;42.71;99048.58;1859619;76;28169;-63
2021/12/29 05:17:25;;;;;;;0.82;0.75;;;;;;;20.45;42.68;99049.70;1864476;76;28080;-63
2021/12/29 05:20:14;;;;;;;0.80;0.80;;;;;;;20.45;42.73;99051.91;1837980;76;28052;-64
2021/12/29 05:23:02;;;;;;;0.60;0.60;;;;;;;20.45;42.68;99049.17;1855545;76;28150;-66
2021/12/29 05:25:51;;;;;;;0.70;0.70;;;;;;;20.46;42.65;99059.04;1869161;76;28118;-65
2021/12/29 05:28:41;;;;;;;0.82;0.82;;;;;;;20.46;42.64;99060.41;1870368;76;28219;-63
2021/12/29 05:31:30;;;;;;;0.82;0.82;;;;;;;20.46;42.70;99063.13;1872497;76;28200;-63
2021/12/29 05:34:18;;;;;;;0.60;0.60;;;;;;;20.47;42.67;99055.23;1876934;76;28136;-64
2021/12/29 05:37:06;;;;;;;0.80;0.70;;;;;;;20.51;42.65;99060.52;1878075;76;28199;-64
2021/12/29 05:39:54;;;;;;;0.80;0.80;;;;;;;20.49;42.60;99060.47;1858340;76;28113;-64
2021/12/29 05:42:44;;;;;;;1.20;0.60;;;;;;;20.48;42.64;99036.45;1877567;76;28100;-64
2021/12/29 05:45:32;;;;;;;0.55;0.55;;;;;;;20.51;42.59;99052.89;1890429;74;28139;-64
2021/12/29 05:48:22;;;;;;;0.60;0.60;;;;;;;20.48;42.67;99065.09;1891547;74;28012;-64
2021/12/29 05:51:12;;;;;;;0.70;0.70;;;;;;;20.50;42.66;99064.33;1868902;76;28043;-64
2021/12/29 05:54:00;;;;;;;0.68;0.68;;;;;;;20.51;42.63;99064.61;1874782;76;28061;-64
2021/12/29 05:56:50;;;;;;;0.60;0.60;;;;;;;20.51;42.63;99064.61;1876323;74;28076;-64
2021/12/29 05:59:38;;;;;;;0.60;0.60;;;;;;;20.51;42.58;99075.52;1876576;76;28187;-64
2021/12/29 06:02:27;;;;;;;0.65;0.65;;;;;;;20.49;42.58;99069.47;1898766;74;28005;-63
2021/12/29 06:05:15;;;;;;;0.70;0.70;;;;;;;20.51;42.37;99095.17;1863477;76;28083;-64
2021/12/29 06:08:07;;;;;;;1.00;0.80;;;;;;;20.51;42.37;99095.17;1874479;76;28203;-63
2021/12/29 06:10:55;;;;;;;0.70;0.70;;;;;;;20.49;42.61;99095.39;1859866;76;28593;-64
2021/12/29 06:13:45;;;;;;;0.70;0.70;;;;;;;20.51;42.66;99091.89;1876548;76;28217;-63
2021/12/29 06:16:35;;;;;;;0.70;0.70;;;;;;;20.51;42.57;99100.08;1872571;76;28242;-64
2021/12/29 06:19:24;;;;;;;0.65;0.65;;;;;;;20.53;42.61;99106.69;1878672;76;31054;-64
2021/12/29 06:22:13;;;;;;;0.65;0.65;;;;;;;20.54;42.58;99111.91;1854348;76;28121;-63
2021/12/29 06:25:01;;;;;;;0.70;0.70;;;;;;;20.50;42.59;99113.44;1863006;76;28332;-64
2021/12/29 06:27:51;;;;;;;0.50;0.50;;;;;;;20.52;42.57;99107.21;1869530;76;28079;-64
2021/12/29 06:30:40;;;;;;;0.70;0.70;;;;;;;20.52;42.57;99108.58;1876665;76;28055;-64
2021/12/29 06:33:28;;;;;;;0.60;0.60;;;;;;;20.51;42.57;99119.17;1859574;75;28248;-64
2021/12/29 06:36:18;;;;;;;0.50;0.50;;;;;;;20.52;42.60;99123.59;1868741;75;28146;-64
2021/12/29 06:39:08;;;;;;;0.70;0.60;;;;;;;20.54;42.54;99122.82;1868075;75;28249;-63
2021/12/29 06:41:57;;;;;;;0.60;0.60;;;;;;;20.54;42.59;99116.00;1855288;76;28118;-63
2021/12/29 06:44:47;;;;;;;0.60;0.60;;;;;;;20.55;42.55;99111.38;1844313;76;28185;-63
2021/12/29 06:47:36;;;;;;;0.62;0.62;;;;;;;20.55;42.53;99121.77;1823237;78;28323;-64
2021/12/29 06:50:24;;;;;;;0.65;0.65;;;;;;;20.56;42.52;99135.70;1875159;75;28131;-63
2021/12/29 06:53:13;;;;;;;0.60;0.60;;;;;;;20.56;42.46;99121.25;1865429;76;28185;-63
2021/12/29 06:56:01;;;;;;;0.70;0.70;;;;;;;20.55;42.48;99126.39;1857419;75;28047;-63
2021/12/29 06:58:49;;;;;;;0.60;0.60;;;;;;;20.57;42.52;99125.09;1862177;76;28016;-63
2021/12/29 07:01:38;;;;;;;0.60;0.60;;;;;;;20.57;42.50;99124.26;1822243;78;28332;-63
2021/12/29 07:04:27;;;;;;;0.50;0.50;;;;;;;20.57;42.50;99131.92;1851523;76;28048;-63
2021/12/29 07:07:16;;;;;;;0.70;0.70;;;;;;;20.58;42.50;99140.39;1871342;76;28222;-64
2021/12/29 07:10:06;;;;;;;0.80;0.80;;;;;;;20.56;42.51;99134.89;1859334;76;28202;-64
2021/12/29 07:12:55;;;;;;;0.55;0.55;;;;;;;20.57;42.48;99129.19;1822300;78;28282;-64
2021/12/29 07:15:45;;;;;;;0.60;0.60;;;;;;;20.56;42.52;99130.23;1855653;75;28447;-64
2021/12/29 07:18:35;;;;;;;0.60;0.60;;;;;;;20.58;42.48;99138.22;1857633;75;28076;-64
2021/12/29 07:21:25;;;;;;;0.60;0.60;;;;;;;20.59;42.51;99144.80;1861164;76;28185;-64
2021/12/29 07:24:13;;;;;;;0.40;0.40;;;;;;;20.57;42.50;99141.47;1869020;75;28079;-63
2021/12/29 07:27:02;;;;;;;0.50;0.50;;;;;;;20.57;42.50;99147.45;1848780;76;27985;-64
2021/12/29 07:29:52;;;;;;;0.70;0.70;;;;;;;20.59;42.43;99163.06;1861059;76;28112;-64
2021/12/29 07:32:41;;;;;;;1.10;1.10;;;;;;;20.59;42.42;99161.69;1857441;76;27989;-63
2021/12/29 07:35:31;;;;;;;0.80;0.80;;;;;;;20.30;41.57;99178.33;1841437;76;28316;-64
2021/12/29 07:38:21;;;;;;;0.70;0.70;;;;;;;20.26;41.93;99186.64;1818969;77;28230;-64
2021/12/29 07:41:11;;;;;;;0.70;0.70;;;;;;;20.28;42.13;99185.87;1838075;77;28123;-65
2021/12/29 07:43:59;;;;;;;0.80;0.80;;;;;;;20.20;42.22;99188.89;1863003;75;28256;-64
2021/12/29 07:46:53;;;;;;;0.60;0.60;;;;;;;20.24;42.05;99194.73;1779414;80;28387;-64
2021/12/29 07:49:41;;;;;;;0.60;0.60;;;;;;;20.28;41.90;99217.24;1799496;77;28321;-64
2021/12/29 07:52:30;;;;;;;0.53;0.53;;;;;;;20.30;41.81;99209.70;1791424;79;28409;-63
2021/12/29 07:55:21;;;;;;;0.70;0.70;;;;;;;20.31;41.70;99211.87;1812608;77;28592;-64
2021/12/29 07:58:09;;;;;;;0.78;0.68;;;;;;;20.31;41.68;99211.87;1813986;77;28306;-63
2021/12/29 08:00:58;;;;;;;0.62;0.47;;;;;;;20.34;41.50;99204.61;1785042;79;28409;-64
2021/12/29 08:03:48;;;;;;;0.42;0.42;;;;;;;20.38;41.55;99208.02;1792155;79;28383;-65
2021/12/29 08:06:37;;;;;;;0.50;0.50;;;;;;;20.39;41.48;99210.22;1809758;77;28305;-64
2021/12/29 08:09:26;;;;;;;0.65;0.65;;;;;;;20.39;41.46;99203.40;1808370;79;28399;-64
2021/12/29 08:12:15;;;;;;;0.50;0.50;;;;;;;20.41;41.41;99209.45;1794384;77;28325;-63
2021/12/29 08:15:05;;;;;;;0.60;0.60;;;;;;;20.42;41.40;99199.67;1807676;79;28300;-64
2021/12/29 08:17:53;;;;;;;0.53;0.53;;;;;;;20.42;41.38;99199.67;1796332;79;28226;-64
2021/12/29 08:20:42;;;;;;;0.40;0.40;;;;;;;20.46;41.30;99204.16;1805179;78;28203;-64
2021/12/29 08:23:31;;;;;;;0.60;0.60;;;;;;;20.44;41.35;99202.19;1808868;79;28422;-64
2021/12/29 08:26:21;;;;;;;0.60;0.60;;;;;;;20.47;41.29;99200.35;1805676;79;28230;-64
2021/12/29 08:29:09;;;;;;;0.80;0.50;;;;;;;20.47;41.27;99197.62;1807869;79;28312;-64
2021/12/29 08:31:59;;;;;;;0.40;0.40;;;;;;;20.45;41.28;99191.56;1810776;78;28340;-64
2021/12/29 08:34:48;;;;;;;0.68;0.68;;;;;;;20.44;41.32;99192.09;1830816;77;28345;-65
2021/12/29 08:37:36;;;;;;;0.40;0.40;;;;;;;20.44;41.29;99193.45;1805287;78;28333;-64
2021/12/29 08:40:26;;;;;;;0.40;0.40;;;;;;;20.46;41.30;99198.17;1785859;79;28293;-64
2021/12/29 08:43:16;;;;;;;0.40;0.40;;;;;;;20.47;41.29;99197.09;1805417;78;28191;-64
2021/12/29 08:46:05;;;;;;;0.95;0.80;;;;;;;20.47;41.32;99200.35;1803415;78;28276;-63
2021/12/29 08:48:54;;;;;;;0.60;0.60;;;;;;;20.44;41.36;99209.82;1808142;78;28338;-64
2021/12/29 08:51:42;;;;;;;0.47;0.47;;;;;;;20.46;41.32;99217.27;1788832;79;28352;-63
2021/12/29 08:54:30;;;;;;;0.50;0.50;;;;;;;20.46;41.36;99215.91;1834347;75;28226;-64
2021/12/29 08:57:19;;;;;;;0.40;0.40;;;;;;;20.44;41.32;99218.00;1865628;75;28004;-63
2021/12/29 09:00:11;;;;;;;0.50;0.50;;;;;;;20.46;41.30;99220.00;1857198;76;28291;-63
2021/12/29 09:03:00;;;;;;;0.40;0.40;;;;;;;20.48;41.33;99229.31;1852812;77;28220;-63
2021/12/29 09:05:49;;;;;;;0.50;0.50;;;;;;;20.46;41.33;99227.34;1849865;76;28000;-64
2021/12/29 09:08:39;;;;;;;0.80;0.47;;;;;;;20.49;41.30;99226.35;1843927;76;30974;-64
2021/12/29 09:11:29;;;;;;;0.50;0.50;;;;;;;20.49;41.29;99229.63;1866321;76;28806;-64
2021/12/29 09:14:17;;;;;;;0.57;0.57;;;;;;;20.50;41.33;99219.84;1853136;75;28258;-65
2021/12/29 09:17:06;;;;;;;0.72;0.60;;;;;;;20.50;41.30;99223.94;1848719;76;28105;-64
2021/12/29 09:19:54;;;;;;;0.50;0.50;;;;;;;20.50;41.30;99223.09;1863542;76;28002;-64
2021/12/29 09:22:45;;;;;;;0.50;0.50;;;;;;;20.49;41.31;99218.16;1855343;77;28740;-62
2021/12/29 09:25:37;;;;;;;0.47;0.47;;;;;;;20.49;41.35;99232.36;1839321;77;32267;-62
2021/12/29 09:28:27;;;;;;;1.10;0.50;;;;;;;20.47;41.38;99229.84;1814849;78;28385;-65
2021/12/29 09:31:19;;;;;;;0.57;0.50;;;;;;;20.49;41.44;99230.44;1798125;79;28230;-65
2021/12/29 09:34:08;;;;;;;0.62;0.62;;;;;;;20.47;41.54;99232.56;1818118;78;28271;-65
2021/12/29 09:36:57;;;;;;;0.60;0.40;;;;;;;20.50;41.52;99243.03;1776851;79;28320;-63
2021/12/29 09:39:45;;;;;;;0.50;0.47;;;;;;;20.49;41.58;99248.73;1825481;76;28327;-63
2021/12/29 09:42:34;;;;;;;0.53;0.53;;;;;;;20.45;41.70;99237.42;1826520;78;28330;-63
2021/12/29 09:45:23;;;;;;;0.68;0.57;;;;;;;20.44;41.81;99240.39;1840972;77;28194;-64
2021/12/29 09:48:12;;;;;;;0.80;0.70;;;;;;;20.44;41.86;99227.55;1782356;79;28266;-63
2021/12/29 09:51:01;;;;;;;0.60;0.60;;;;;;;20.45;41.99;99221.58;1798493;79;28303;-65
2021/12/29 09:53:51;;;;;;;0.88;0.50;;;;;;;20.47;42.01;99218.09;1829200;76;28209;-65
2021/12/29 09:56:39;;;;;;;0.60;0.60;;;;;;;20.47;42.05;99217.56;1787985;79;28332;-65
2021/12/29 09:59:28;;;;;;;0.98;0.62;;;;;;;20.47;42.09;99218.92;1807308;78;28309;-65
2021/12/29 10:02:19;;;;;;;0.70;0.70;;;;;;;20.48;42.14;99211.06;1826914;78;28825;-65
2021/12/29 10:05:08;;;;;;;0.85;0.65;;;;;;;20.48;42.15;99202.88;1797687;79;28245;-65
2021/12/29 10:08:07;;;;;;;0.95;0.55;;;;;;;20.50;42.14;99188.47;1818204;78;28348;-66
2021/12/29 10:10:59;;;;;;;0.50;0.50;;;;;;;20.49;42.21;99179.97;1816845;78;28183;-65
2021/12/29 10:13:50;;;;;;;0.50;0.50;;;;;;;20.49;42.22;99182.70;1832078;78;28243;-65
2021/12/29 10:16:40;;;;;;;0.70;0.70;;;;;;;20.46;42.29;99191.88;1827878;78;28190;-65
2021/12/29 10:19:31;;;;;;;0.68;0.68;;;;;;;20.46;42.36;99187.79;1795816;79;28396;-64
2021/12/29 10:22:24;;;;;;;0.90;0.70;;;;;;;20.47;42.31;99174.43;1774323;80;28315;-64
2021/12/29 10:25:17;;;;;;;0.70;0.60;;;;;;;20.46;42.40;99165.44;1815677;78;28734;-65
2021/12/29 10:28:05;;;;;;;0.90;0.60;;;;;;;20.46;42.41;99170.06;1827849;78;28195;-65
2021/12/29 10:31:02;;;;;;;0.60;0.60;;;;;;;20.48;42.40;99193.84;1830193;78;28254;-65
2021/12/29 10:34:00;;;;;;;0.60;0.60;;;;;;;20.49;42.49;99210.53;1833150;78;28183;-66
2021/12/29 10:36:52;;;;;;;1.20;1.10;;;;;;;20.48;42.54;99231.52;1786033;78;28346;-64
2021/12/29 10:39:44;;;;;;;0.68;0.68;;;;;;;20.46;42.57;99218.64;1812508;77;28371;-64
2021/12/29 10:42:32;;;;;;;0.90;0.53;;;;;;;20.48;42.57;99198.78;1803923;78;28831;-64
2021/12/29 10:45:30;;;;;;;0.70;0.70;;;;;;;20.48;42.62;99206.13;1806742;78;28435;-64
2021/12/29 10:48:24;;;;;;;0.97;0.70;;;;;;;20.49;42.64;99214.63;1836214;77;28228;-65
2021/12/29 10:51:13;;;;;;;0.63;0.63;;;;;;;20.50;42.65;99229.92;1810363;78;28340;-64
2021/12/29 10:54:14;;;;;;;0.70;0.70;;;;;;;20.52;42.65;99214.98;1833308;77;28285;-65
2021/12/29 10:57:07;;;;;;;1.23;0.70;;;;;;;20.51;42.68;99207.05;1796476;78;28341;-65
2021/12/29 11:00:04;;;;;;;1.20;0.70;;;;;;;20.43;42.73;99194.53;1816493;77;28367;-65
2021/12/29 11:02:47;;;;;;;0.60;0.60;;;;;;;20.48;42.73;99212.42;1811344;78;28258;-65
2021/12/29 11:05:39;;;;;;;0.60;0.60;;;;;;;20.49;42.78;99215.44;1834774;77;28312;-65
2021/12/29 11:08:30;;;;;;;0.83;0.67;;;;;;;20.51;42.74;99219.32;1824483;77;28345;-65
2021/12/29 11:11:22;;;;;;;0.60;0.60;;;;;;;20.49;42.80;99239.19;1821681;77;28273;-65
2021/12/29 11:14:21;;;;;;;0.70;0.65;;;;;;;20.49;42.79;99222.26;1793803;78;28240;-65
2021/12/29 11:17:15;;;;;;;0.60;0.60;;;;;;;20.49;42.83;99230.44;1840894;77;28223;-65
2021/12/29 11:20:04;;;;;;;0.70;0.70;;;;;;;20.50;42.84;99225.30;1827096;76;28281;-65
2021/12/29 11:22:55;;;;;;;0.55;0.55;;;;;;;20.49;42.90;99210.53;1809146;79;28312;-65
2021/12/29 11:25:45;;;;;;;0.70;0.70;;;;;;;20.49;42.90;99178.60;1809049;79;28352;-65
2021/12/29 11:28:34;;;;;;;0.72;0.72;;;;;;;20.52;42.89;99180.88;1789893;79;28351;-65
2021/12/29 11:31:26;;;;;;;0.60;0.60;;;;;;;20.54;42.91;99223.78;1830441;77;28364;-65
2021/12/29 11:34:20;;;;;;;0.80;0.80;;;;;;;20.54;42.88;99152.83;1810605;78;28235;-65
2021/12/29 11:37:15;;;;;;;1.20;0.80;;;;;;;20.52;42.87;99141.32;1809794;78;28338;-65
2021/12/29 11:40:07;;;;;;;0.70;0.70;;;;;;;20.52;42.91;99201.88;1812163;77;28410;-65
2021/12/29 11:42:56;;;;;;;0.70;0.70;;;;;;;20.51;42.96;99213.86;1818476;77;28781;-65
2021/12/29 11:45:48;;;;;;;0.70;0.70;;;;;;;20.51;43.01;99192.03;1822462;76;28247;-65
2021/12/29 11:48:36;;;;;;;0.62;0.62;;;;;;;20.51;42.98;99157.93;1829112;77;28367;-64
2021/12/29 11:51:36;;;;;;;0.70;0.70;;;;;;;20.52;42.96;99168.61;1822630;77;29130;-65
2021/12/29 11:54:49;;;;;;;0.90;0.72;;;;;;;20.54;42.95;99203.84;1820042;77;28327;-65
2021/12/29 11:57:38;;;;;;;0.70;0.70;;;;;;;20.53;43.03;99203.03;1794545;78;28313;-63
2021/12/29 12:00:28;;;;;;;0.82;0.82;;;;;;;20.52;43.05;99190.95;1828870;76;28334;-65
2021/12/29 12:03:18;;;;;;;0.70;0.70;;;;;;;20.54;43.11;99209.30;1809079;79;28300;-64
2021/12/29 12:06:06;;;;;;;0.80;0.80;;;;;;;20.51;43.11;99211.95;1803193;79;28206;-60
2021/12/29 12:09:13;;;;;;;0.70;0.70;;;;;;;20.52;43.13;99201.34;1806732;79;28300;-59
2021/12/29 12:12:03;;;;;;;0.70;0.70;;;;;;;20.55;43.18;99211.81;1805796;78;28367;-59
2021/12/29 12:14:53;;;;;;;0.78;0.78;;;;;;;20.53;43.18;99218.03;1819669;77;28363;-59
2021/12/29 12:17:42;;;;;;;0.88;0.88;;;;;;;20.53;43.22;99190.75;1822283;77;28392;-60
2021/12/29 12:20:34;;;;;;;0.60;0.60;;;;;;;20.55;43.24;99173.61;1835295;76;28247;-66
2021/12/29 12:23:30;;;;;;;0.70;0.70;;;;;;;20.57;43.28;99208.33;1838876;77;28168;-62
2021/12/29 12:26:25;;;;;;;0.80;0.80;;;;;;;20.59;43.24;99214.91;1837829;77;28302;-66
2021/12/29 12:29:14;;;;;;;0.80;0.80;;;;;;;20.57;43.28;99206.95;1840728;77;38720;-63
2021/12/29 12:32:09;;;;;;;0.80;0.80;;;;;;;20.58;43.35;99212.70;1837404;77;28341;-61
2021/12/29 12:35:07;;;;;;;0.70;0.70;;;;;;;20.59;43.39;99217.11;1816578;77;28454;-61
2021/12/29 12:37:56;;;;;;;0.70;0.70;;;;;;;20.60;43.46;99228.34;1821361;78;28352;-61
2021/12/29 12:40:45;;;;;;;0.80;0.80;;;;;;;20.58;43.57;99227.70;1834411;76;28402;-61
2021/12/29 12:43:37;;;;;;;0.70;0.70;;;;;;;20.58;43.62;99220.89;1879255;75;28180;-61
2021/12/29 12:46:40;;;;;;;1.02;0.93;;;;;;;20.56;43.66;99217.56;1830698;77;28387;-60
2021/12/29 12:49:29;;;;;;;0.90;0.90;;;;;;;20.56;43.68;99207.20;1795772;77;28392;-62
2021/12/29 12:52:19;;;;;;;0.90;0.90;;;;;;;20.57;43.67;99189.75;1807792;78;28413;-62
2021/12/29 12:55:10;;;;;;;0.93;0.80;;;;;;;20.59;43.56;99203.47;1807698;78;28359;-63
2021/12/29 12:58:10;;;;;;;1.07;0.85;;;;;;;20.65;43.57;99201.17;1800835;78;28296;-62
2021/12/29 13:01:05;;;;;;;1.65;0.70;;;;;;;20.67;43.73;99185.95;1827155;77;28310;-62
2021/12/29 13:03:56;;;;;;;0.90;0.90;;;;;;;20.67;43.68;99199.60;1797917;78;31379;-62
2021/12/29 13:06:47;;;;;;;1.77;0.98;;;;;;;20.70;43.71;99211.95;1829717;77;28249;-61
2021/12/29 13:09:48;;;;;;;1.35;1.10;;;;;;;20.72;43.75;99207.09;1808566;79;28328;-62
2021/12/29 13:12:39;;;;;;;1.05;1.05;;;;;;;20.68;43.86;99213.00;1794703;79;28354;-63
2021/12/29 13:15:31;;;;;;;1.10;1.00;;;;;;;20.65;44.02;99201.17;1797710;77;28302;-62
2021/12/29 13:18:22;;;;;;;1.20;1.10;;;;;;;20.73;44.18;99198.67;1802260;79;28374;-70
2021/12/29 13:21:21;;;;;;;2.40;2.20;;;;;;;20.61;43.54;99229.99;1806817;79;28419;-62
2021/12/29 13:24:12;;;;;;;1.90;1.40;;;;;;;20.15;43.48;99225.54;1799289;79;28357;-62
2021/12/29 13:27:05;;;;;;;1.70;1.30;;;;;;;20.21;44.14;99214.27;1809226;78;28247;-62